sensor_id;sensor_type;location;lat;lon;timestamp;P1;durP1;ratioP1;P2;durP2;ratioP2
22441;SDS011;11388;54.456;9.752;2023-07-13T04:02:41;6.30;;;3.33;;
22441;SDS011;11388;54.456;9.752;2023-07-13T04:05:10;4.85;;;3.47;;
22441;SDS011;11388;54.456;9.752;2023-07-13T04:07:35;8.30;;;3.30;;
22441;SDS011;11388;54.456;9.752;2023-07-13T04:10:01;5.75;;;3.20;;
22441;SDS011;11388;54.456;9.752;2023-07-13T04:12:27;7.22;;;3.45;;
22441;SDS011;11388;54.456;9.752;2023-07-13T04:14:53;5.47;;;3.58;;
22441;SDS011;11388;54.456;9.752;2023-07-13T04:17:27;5.32;;;3.38;;
22441;SDS011;11388;54.456;9.752;2023-07-13T04:19:53;5.70;;;3.55;;
22441;SDS011;11388;54.456;9.752;2023-07-13T04:22:18;5.47;;;3.10;;
22441;SDS011;11388;54.456;9.752;2023-07-13T04:24:44;7.47;;;3.28;;
22441;SDS011;11388;54.456;9.752;2023-07-13T04:27:10;6.80;;;3.22;;
22441;SDS011;11388;54.456;9.752;2023-07-13T04:29:36;8.25;;;3.40;;
22441;SDS011;11388;54.456;9.752;2023-07-13T04:32:02;5.53;;;3.17;;
22441;SDS011;11388;54.456;9.752;2023-07-13T04:34:28;8.55;;;3.25;;
22441;SDS011;11388;54.456;9.752;2023-07-13T04:36:53;6.65;;;3.10;;
22441;SDS011;11388;54.456;9.752;2023-07-13T04:39:19;6.70;;;3.40;;
22441;SDS011;11388;54.456;9.752;2023-07-13T04:41:45;7.05;;;3.10;;
22441;SDS011;11388;54.456;9.752;2023-07-13T04:44:17;6.00;;;2.88;;
22441;SDS011;11388;54.456;9.752;2023-07-13T04:46:42;7.78;;;3.50;;
22441;SDS011;11388;54.456;9.752;2023-07-13T04:49:11;8.32;;;3.13;;
22441;SDS011;11388;54.456;9.752;2023-07-13T04:51:36;6.95;;;2.60;;
22441;SDS011;11388;54.456;9.752;2023-07-13T04:54:03;7.00;;;2.80;;
22441;SDS011;11388;54.456;9.752;2023-07-13T04:56:30;7.05;;;3.03;;
22441;SDS011;11388;54.456;9.752;2023-07-13T04:58:55;10.45;;;2.90;;
22441;SDS011;11388;54.456;9.752;2023-07-13T05:01:21;8.20;;;2.88;;
22441;SDS011;11388;54.456;9.752;2023-07-13T05:03:55;7.75;;;2.95;;
22441;SDS011;11388;54.456;9.752;2023-07-13T05:06:23;7.88;;;2.55;;
22441;SDS011;11388;54.456;9.752;2023-07-13T05:08:49;5.47;;;2.70;;
22441;SDS011;11388;54.456;9.752;2023-07-13T05:11:15;4.78;;;2.22;;
22441;SDS011;11388;54.456;9.752;2023-07-13T05:17:03;8.70;;;1.63;;
22441;SDS011;11388;54.456;9.752;2023-07-13T05:19:29;2.63;;;1.35;;
22441;SDS011;11388;54.456;9.752;2023-07-13T05:21:55;2.70;;;0.90;;
22441;SDS011;11388;54.456;9.752;2023-07-13T05:24:21;4.45;;;0.82;;
22441;SDS011;11388;54.456;9.752;2023-07-13T05:26:46;3.15;;;0.50;;
22441;SDS011;11388;54.456;9.752;2023-07-13T05:29:15;2.47;;;0.57;;
22441;SDS011;11388;54.456;9.752;2023-07-13T05:31:41;0.98;;;0.40;;
22441;SDS011;11388;54.456;9.752;2023-07-13T05:34:07;1.35;;;0.40;;
22441;SDS011;11388;54.456;9.752;2023-07-13T05:36:32;2.67;;;0.43;;
22441;SDS011;11388;54.456;9.752;2023-07-13T05:38:58;2.47;;;0.50;;
22441;SDS011;11388;54.456;9.752;2023-07-13T05:41:24;0.85;;;0.38;;
22441;SDS011;11388;54.456;9.752;2023-07-13T05:43:50;1.02;;;0.35;;
22441;SDS011;11388;54.456;9.752;2023-07-13T05:46:15;1.17;;;0.40;;
22441;SDS011;11388;54.456;9.752;2023-07-13T05:48:41;1.83;;;0.30;;
22441;SDS011;11388;54.456;9.752;2023-07-13T17:07:19;4.72;;;1.10;;
22441;SDS011;11388;54.456;9.752;2023-07-13T17:10:29;7.03;;;1.30;;
22441;SDS011;11388;54.456;9.752;2023-07-13T17:16:16;6.35;;;1.20;;
22441;SDS011;11388;54.456;9.752;2023-07-13T17:18:49;5.18;;;0.90;;
22441;SDS011;11388;54.456;9.752;2023-07-13T17:21:40;3.13;;;1.10;;
22441;SDS011;11388;54.456;9.752;2023-07-13T19:03:18;8.30;;;1.88;;
22441;SDS011;11388;54.456;9.752;2023-07-13T19:06:00;5.38;;;1.58;;
22441;SDS011;11388;54.456;9.752;2023-07-13T19:08:30;6.90;;;1.67;;
22441;SDS011;11388;54.456;9.752;2023-07-13T19:10:58;8.00;;;1.60;;
22441;SDS011;11388;54.456;9.752;2023-07-13T19:13:27;6.22;;;1.50;;
22441;SDS011;11388;54.456;9.752;2023-07-13T19:16:07;8.25;;;1.95;;
22441;SDS011;11388;54.456;9.752;2023-07-13T19:18:35;6.10;;;1.90;;
22441;SDS011;11388;54.456;9.752;2023-07-13T19:21:03;6.20;;;1.73;;
22441;SDS011;11388;54.456;9.752;2023-07-13T19:23:50;7.88;;;2.00;;
22441;SDS011;11388;54.456;9.752;2023-07-13T19:26:28;5.30;;;1.80;;
22441;SDS011;11388;54.456;9.752;2023-07-13T19:29:03;5.55;;;1.88;;
22441;SDS011;11388;54.456;9.752;2023-07-13T19:31:38;6.35;;;1.77;;
22441;SDS011;11388;54.456;9.752;2023-07-13T19:34:44;4.28;;;1.30;;
22441;SDS011;11388;54.456;9.752;2023-07-13T19:40:19;5.75;;;1.52;;
22441;SDS011;11388;54.456;9.752;2023-07-13T19:42:54;4.55;;;1.42;;
22441;SDS011;11388;54.456;9.752;2023-07-13T19:45:23;3.95;;;1.55;;
22441;SDS011;11388;54.456;9.752;2023-07-13T19:47:50;5.70;;;1.55;;
22441;SDS011;11388;54.456;9.752;2023-07-13T19:50:18;4.63;;;1.48;;
22441;SDS011;11388;54.456;9.752;2023-07-13T19:52:48;3.42;;;1.30;;
22441;SDS011;11388;54.456;9.752;2023-07-13T19:55:25;5.82;;;1.75;;
22441;SDS011;11388;54.456;9.752;2023-07-13T19:57:55;5.72;;;1.55;;
22441;SDS011;11388;54.456;9.752;2023-07-13T20:00:25;5.03;;;1.60;;
22441;SDS011;11388;54.456;9.752;2023-07-13T20:02:52;5.38;;;1.55;;
22441;SDS011;11388;54.456;9.752;2023-07-13T20:05:28;7.63;;;1.70;;
22441;SDS011;11388;54.456;9.752;2023-07-13T20:08:00;4.63;;;1.42;;
22441;SDS011;11388;54.456;9.752;2023-07-13T20:10:30;3.78;;;1.40;;
22441;SDS011;11388;54.456;9.752;2023-07-13T20:12:59;3.42;;;1.40;;
22441;SDS011;11388;54.456;9.752;2023-07-13T20:15:28;5.20;;;1.48;;
22441;SDS011;11388;54.456;9.752;2023-07-13T20:17:58;4.70;;;1.77;;
22441;SDS011;11388;54.456;9.752;2023-07-13T20:20:34;6.22;;;1.50;;
22441;SDS011;11388;54.456;9.752;2023-07-13T20:23:16;5.70;;;1.80;;
22441;SDS011;11388;54.456;9.752;2023-07-13T20:25:43;5.22;;;1.50;;
22441;SDS011;11388;54.456;9.752;2023-07-13T20:28:12;5.57;;;1.70;;
22441;SDS011;11388;54.456;9.752;2023-07-13T20:30:46;5.50;;;1.70;;
22441;SDS011;11388;54.456;9.752;2023-07-13T20:33:23;5.88;;;1.80;;
22441;SDS011;11388;54.456;9.752;2023-07-13T20:36:04;4.57;;;1.48;;
22441;SDS011;11388;54.456;9.752;2023-07-13T20:38:34;5.72;;;1.63;;
22441;SDS011;11388;54.456;9.752;2023-07-13T20:41:00;4.47;;;1.63;;
22441;SDS011;11388;54.456;9.752;2023-07-13T20:43:29;6.13;;;1.50;;
22441;SDS011;11388;54.456;9.752;2023-07-13T20:46:07;5.38;;;1.40;;
22441;SDS011;11388;54.456;9.752;2023-07-13T20:48:41;7.03;;;1.60;;
22441;SDS011;11388;54.456;9.752;2023-07-13T20:51:18;6.05;;;1.88;;
22441;SDS011;11388;54.456;9.752;2023-07-13T21:02:38;6.38;;;1.80;;
22441;SDS011;11388;54.456;9.752;2023-07-13T21:07:53;6.65;;;1.80;;
22441;SDS011;11388;54.456;9.752;2023-07-13T21:10:43;7.40;;;2.20;;
22441;SDS011;11388;54.456;9.752;2023-07-13T21:13:20;7.18;;;1.98;;
22441;SDS011;11388;54.456;9.752;2023-07-13T21:15:51;7.43;;;1.77;;
22441;SDS011;11388;54.456;9.752;2023-07-13T21:18:20;5.63;;;1.90;;
22441;SDS011;11388;54.456;9.752;2023-07-13T21:20:51;5.18;;;1.77;;
22441;SDS011;11388;54.456;9.752;2023-07-13T21:23:26;9.32;;;2.33;;
22441;SDS011;11388;54.456;9.752;2023-07-13T21:25:58;4.93;;;1.92;;
22441;SDS011;11388;54.456;9.752;2023-07-13T21:28:42;5.68;;;1.85;;
22441;SDS011;11388;54.456;9.752;2023-07-13T21:31:29;9.38;;;1.98;;
22441;SDS011;11388;54.456;9.752;2023-07-13T21:34:19;8.77;;;2.00;;
22441;SDS011;11388;54.456;9.752;2023-07-13T21:40:08;7.68;;;2.08;;
22441;SDS011;11388;54.456;9.752;2023-07-13T21:42:41;7.00;;;2.22;;
22441;SDS011;11388;54.456;9.752;2023-07-13T21:45:33;5.93;;;1.63;;
22441;SDS011;11388;54.456;9.752;2023-07-13T21:47:59;7.05;;;1.90;;
22441;SDS011;11388;54.456;9.752;2023-07-13T21:50:33;7.88;;;2.17;;
22441;SDS011;11388;54.456;9.752;2023-07-13T21:53:31;9.65;;;2.25;;
22441;SDS011;11388;54.456;9.752;2023-07-13T21:56:08;6.18;;;2.00;;
22441;SDS011;11388;54.456;9.752;2023-07-13T21:58:37;7.88;;;2.22;;
22441;SDS011;11388;54.456;9.752;2023-07-13T22:01:36;6.85;;;1.90;;
22441;SDS011;11388;54.456;9.752;2023-07-13T22:03:58;9.80;;;2.30;;
22441;SDS011;11388;54.456;9.752;2023-07-13T22:06:25;8.20;;;2.45;;
22441;SDS011;11388;54.456;9.752;2023-07-13T22:09:09;9.85;;;2.20;;
22441;SDS011;11388;54.456;9.752;2023-07-13T22:11:55;6.20;;;2.05;;
22441;SDS011;11388;54.456;9.752;2023-07-13T22:14:30;6.10;;;1.88;;
22441;SDS011;11388;54.456;9.752;2023-07-13T22:17:10;6.43;;;2.00;;
22441;SDS011;11388;54.456;9.752;2023-07-13T22:19:43;4.93;;;1.70;;
22441;SDS011;11388;54.456;9.752;2023-07-13T22:22:09;7.07;;;2.30;;
22441;SDS011;11388;54.456;9.752;2023-07-13T22:24:38;7.35;;;2.20;;
22441;SDS011;11388;54.456;9.752;2023-07-13T22:27:36;5.18;;;1.88;;
22441;SDS011;11388;54.456;9.752;2023-07-13T22:33:16;8.05;;;2.33;;
22441;SDS011;11388;54.456;9.752;2023-07-13T22:35:51;7.43;;;2.10;;
22441;SDS011;11388;54.456;9.752;2023-07-13T22:38:26;6.90;;;1.95;;
22441;SDS011;11388;54.456;9.752;2023-07-13T22:41:07;5.13;;;1.83;;
22441;SDS011;11388;54.456;9.752;2023-07-13T22:43:39;5.88;;;2.15;;
22441;SDS011;11388;54.456;9.752;2023-07-13T22:46:23;7.65;;;2.20;;
22441;SDS011;11388;54.456;9.752;2023-07-13T22:49:11;9.60;;;2.50;;
22441;SDS011;11388;54.456;9.752;2023-07-13T22:52:09;6.68;;;2.15;;
22441;SDS011;11388;54.456;9.752;2023-07-13T22:54:58;6.07;;;2.00;;
22441;SDS011;11388;54.456;9.752;2023-07-13T22:57:59;7.82;;;2.50;;
22441;SDS011;11388;54.456;9.752;2023-07-13T23:00:43;9.85;;;2.13;;
22441;SDS011;11388;54.456;9.752;2023-07-13T23:03:16;9.93;;;2.42;;
22441;SDS011;11388;54.456;9.752;2023-07-13T23:05:45;9.90;;;2.50;;
22441;SDS011;11388;54.456;9.752;2023-07-13T23:08:13;6.72;;;2.33;;
22441;SDS011;11388;54.456;9.752;2023-07-13T23:10:52;8.50;;;2.95;;
22441;SDS011;11388;54.456;9.752;2023-07-13T23:13:33;6.93;;;2.30;;
22441;SDS011;11388;54.456;9.752;2023-07-13T23:16:18;4.57;;;2.05;;
22441;SDS011;11388;54.456;9.752;2023-07-13T23:19:02;7.72;;;2.45;;
22441;SDS011;11388;54.456;9.752;2023-07-13T23:21:44;9.02;;;2.38;;
22441;SDS011;11388;54.456;9.752;2023-07-13T23:24:17;8.35;;;2.40;;
22441;SDS011;11388;54.456;9.752;2023-07-13T23:27:03;7.88;;;2.15;;
22441;SDS011;11388;54.456;9.752;2023-07-13T23:29:47;7.18;;;2.33;;
22441;SDS011;11388;54.456;9.752;2023-07-13T23:32:14;8.35;;;2.30;;
22441;SDS011;11388;54.456;9.752;2023-07-13T23:34:46;8.60;;;2.78;;
22441;SDS011;11388;54.456;9.752;2023-07-13T23:37:22;5.88;;;2.20;;
22441;SDS011;11388;54.456;9.752;2023-07-13T23:43:01;7.68;;;2.45;;
22441;SDS011;11388;54.456;9.752;2023-07-13T23:45:40;10.63;;;2.60;;
22441;SDS011;11388;54.456;9.752;2023-07-13T23:50:59;8.60;;;2.58;;
22441;SDS011;11388;54.456;9.752;2023-07-13T23:53:29;7.18;;;2.50;;
22441;SDS011;11388;54.456;9.752;2023-07-13T23:55:58;4.95;;;2.30;;
22441;SDS011;11388;54.456;9.752;2023-07-13T23:58:26;6.88;;;2.30;;
